Time;durP1;ratioP1;P1;durP2;ratioP2;P2;SDS_P1;SDS_P2;PMS_P1;PMS_P2;Temp;Humidity;BMP_temperature;BMP_pressure;BME280_temperature;BME280_humidity;BME280_pressure;Samples;Min_cycle;Max_cycle;Signal;HPM_P1;HPM_P2
2023/07/10 00:02:00;;;;;;;;;;;;;;;;;;5074955;28;19931;-74
2023/07/10 00:04:26;;;;;;;;;;;;;;;;;;5092066;28;19920;-72
2023/07/10 00:06:51;;;;;;;;;;;;;;;;;;5056357;28;19922;-74
2023/07/10 00:09:16;;;;;;;;;;;;;;;;;;5070350;28;19919;-73
2023/07/10 00:11:41;;;;;;;;;;;;;;;;;;5092618;28;19919;-72
2023/07/10 00:14:09;;;;;;;;;;;;;;;;;;5076895;28;19995;-72
2023/07/10 00:16:38;;;;;;;;;;;;;;;;;;5092197;28;20004;-75
2023/07/10 00:19:08;;;;;;;;;;;;;;;;;;5090888;28;19920;-73
2023/07/10 00:21:35;;;;;;;;;;;;;;;;;;5094351;28;20332;-74
2023/07/10 00:24:03;;;;;;;;;;;;;;;;;;5058078;28;19922;-73
2023/07/10 00:26:31;;;;;;;;;;;;;;;;;;5080015;28;19920;-74
2023/07/10 00:28:56;;;;;;;;;;;;;;;;;;5095153;27;19923;-72
2023/07/10 00:31:27;;;;;;;;;;;;;;;;;;5097940;27;19919;-75
2023/07/10 00:33:52;;;;;;;;;;;;;;;;;;5056286;28;19920;-72
2023/07/10 00:36:17;;;;;;;;;;;;;;;;;;5076972;28;19920;-74
2023/07/10 00:38:43;;;;;;;;;;;;;;;;;;5093179;28;19915;-72
2023/07/10 00:41:08;;;;;;;;;;;;;;;;;;5094470;27;19923;-73
2023/07/10 00:43:34;;;;;;;;;;;;;;;;;;5077110;28;19926;-75
2023/07/10 00:46:03;;;;;;;;;;;;;;;;;;5087209;28;20019;-73
2023/07/10 00:48:28;;;;;;;;;;;;;;;;;;5054739;28;19929;-75
2023/07/10 00:50:53;;;;;;;;;;;;;;;;;;5075860;27;19972;-73
2023/07/10 00:53:19;;;;;;;;;;;;;;;;;;5078950;28;19919;-74
2023/07/10 00:55:44;;;;;;;;;;;;;;;;;;5060250;27;19915;-73
2023/07/10 00:58:09;;;;;;;;;;;;;;;;;;5075109;27;19923;-74
2023/07/10 01:00:34;;;;;;;;;;;;;;;;;;5077056;27;19920;-73
2023/07/10 01:03:02;;;;;;;;;;;;;;;;;;5092535;27;19986;-74
2023/07/10 01:05:27;;;;;;;;;;;;;;;;;;5077577;27;20645;-75
2023/07/10 01:07:53;;;;;;;;;;;;;;;;;;5076644;27;20010;-74
2023/07/10 01:10:21;;;;;;;;;;;;;;;;;;5076426;27;19969;-76
2023/07/10 01:12:46;;;;;;;;;;;;;;;;;;5063076;27;19939;-76
2023/07/10 01:15:12;;;;;;;;;;;;;;;;;;5062507;27;20290;-74
2023/07/10 01:17:37;;;;;;;;;;;;;;;;;;5084238;27;19912;-74
2023/07/10 01:20:02;;;;;;;;;;;;;;;;;;5077684;27;20007;-74
2023/07/10 01:22:33;;;;;;;;;;;;;;;;;;5078148;27;19920;-75
2023/07/10 01:24:59;;;;;;;;;;;;;;;;;;5075530;27;19920;-74
2023/07/10 01:27:29;;;;;;;;;;;;;;;;;;5060470;28;19916;-75
2023/07/10 01:29:55;;;;;;;;;;;;;;;;;;5059529;27;19960;-74
2023/07/10 01:32:20;;;;;;;;;;;;;;;;;;5076838;27;20157;-75
2023/07/10 01:34:48;;;;;;;;;;;;;;;;;;5077173;27;19927;-76
2023/07/10 01:37:13;;;;;;;;;;;;;;;;;;5096284;27;19920;-75
2023/07/10 01:39:41;;;;;;;;;;;;;;;;;;5077320;27;19926;-76
2023/07/10 01:42:06;;;;;;;;;;;;;;;;;;5075974;27;19967;-75
2023/07/10 01:44:31;;;;;;;;;;;;;;;;;;5076118;27;19937;-76
2023/07/10 01:46:56;;;;;;;;;;;;;;;;;;5072954;27;20026;-74
2023/07/10 01:49:22;;;;;;;;;;;;;;;;;;5091714;27;19924;-74
2023/07/10 01:51:47;;;;;;;;;;;;;;;;;;5053862;28;19924;-74
2023/07/10 01:54:12;;;;;;;;;;;;;;;;;;5071372;28;20888;-74
2023/07/10 01:56:38;;;;;;;;;;;;;;;;;;5093087;27;19968;-75
2023/07/10 01:59:03;;;;;;;;;;;;;;;;;;5091021;28;20279;-76
2023/07/10 02:01:31;;;;;;;;;;;;;;;;;;5072847;28;19926;-76
2023/07/10 02:03:56;;;;;;;;;;;;;;;;;;5068272;28;19998;-75
2023/07/10 02:09:38;;;;;;;;;;;;;;;;;;5090271;28;19927;-75
2023/07/10 02:12:07;;;;;;;;;;;;;;;;;;5070225;28;19920;-74
2023/07/10 02:14:32;;;;;;;;;;;;;;;;;;5072050;28;19927;-76
2023/07/10 02:16:58;;;;;;;;;;;;;;;;;;5091534;28;20000;-75
2023/07/10 02:19:23;;;;;;;;;;;;;;;;;;5089817;28;19916;-75
2023/07/10 02:21:48;;;;;;;;;;;;;;;;;;5056043;28;19928;-75
2023/07/10 02:24:14;;;;;;;;;;;;;;;;;;5069765;28;19972;-75
2023/07/10 02:26:39;;;;;;;;;;;;;;;;;;5092257;28;20235;-75
2023/07/10 02:29:05;;;;;;;;;;;;;;;;;;5082402;28;19961;-76
2023/07/10 02:31:30;;;;;;;;;;;;;;;;;;5092100;28;20084;-76
2023/07/10 02:33:55;;;;;;;;;;;;;;;;;;5073825;28;19927;-75
2023/07/10 02:36:23;;;;;;;;;;;;;;;;;;5077264;28;19928;-74
2023/07/10 02:38:51;;;;;;;;;;;;;;;;;;5067618;28;19919;-75
2023/07/10 02:41:19;;;;;;;;;;;;;;;;;;5087517;28;19923;-76
2023/07/10 02:43:44;;;;;;;;;;;;;;;;;;5070607;28;20008;-75
2023/07/10 02:46:09;;;;;;;;;;;;;;;;;;5054008;28;19916;-75
2023/07/10 02:48:35;;;;;;;;;;;;;;;;;;5074108;27;20438;-75
2023/07/10 02:51:00;;;;;;;;;;;;;;;;;;5089960;28;19977;-76
2023/07/10 02:53:26;;;;;;;;;;;;;;;;;;5055776;28;19920;-75
2023/07/10 02:55:54;;;;;;;;;;;;;;;;;;5070420;28;19920;-75
2023/07/10 02:58:22;;;;;;;;;;;;;;;;;;5069420;28;20011;-76
2023/07/10 03:00:47;;;;;;;;;;;;;;;;;;5074698;28;19983;-75
2023/07/10 03:03:12;;;;;;;;;;;;;;;;;;5093592;28;19920;-76
2023/07/10 03:08:53;;;;;;;;;;;;;;;;;;5090497;28;19969;-75
2023/07/10 03:11:19;;;;;;;;;;;;;;;;;;5091684;28;19915;-73
2023/07/10 03:13:46;;;;;;;;;;;;;;;;;;5073247;28;19920;-76
2023/07/10 03:16:12;;;;;;;;;;;;;;;;;;5075813;28;19966;-75
2023/07/10 03:18:37;;;;;;;;;;;;;;;;;;5071431;28;20428;-77
2023/07/10 03:21:03;;;;;;;;;;;;;;;;;;5084509;28;19967;-76
2023/07/10 03:23:28;;;;;;;;;;;;;;;;;;5090775;28;19928;-77
2023/07/10 03:25:53;;;;;;;;;;;;;;;;;;5089514;28;19916;-77
2023/07/10 03:28:18;;;;;;;;;;;;;;;;;;5089806;28;19920;-76
2023/07/10 03:34:03;;;;;;;;;;;;;;;;;;5088102;28;20455;-75
2023/07/10 03:36:28;;;;;;;;;;;;;;;;;;5091124;28;19919;-75
2023/07/10 03:38:53;;;;;;;;;;;;;;;;;;5071834;28;19950;-75
2023/07/10 03:41:18;;;;;;;;;;;;;;;;;;5072027;28;19967;-76
2023/07/10 03:43:44;;;;;;;;;;;;;;;;;;5089926;28;20018;-74
2023/07/10 03:49:26;;;;;;;;;;;;;;;;;;5080094;28;19935;-76
2023/07/10 03:51:51;;;;;;;;;;;;;;;;;;5059477;28;19916;-75
2023/07/10 03:54:16;;;;;;;;;;;;;;;;;;5053469;28;19927;-75
2023/07/10 03:56:42;;;;;;;;;;;;;;;;;;5038182;28;19916;-75
2023/07/10 04:01:55;;;;;;;;;;;;;;;;;;5061765;28;20890;-76
2023/07/10 04:04:20;;;;;;;;;;;;;;;;;;5037278;28;19920;-75
2023/07/10 04:06:45;;;;;;;;;;;;;;;;;;5057337;28;19921;-76
2023/07/10 04:09:11;;;;;;;;;;;;;;;;;;5058094;28;20034;-76
2023/07/10 04:11:36;;;;;;;;;;;;;;;;;;5077433;28;19916;-76
2023/07/10 04:14:01;;;;;;;;;;;;;;;;;;5072465;28;19924;-75
2023/07/10 04:16:27;;;;;;;;;;;;;;;;;;5052973;28;19927;-76
2023/07/10 04:18:52;;;;;;;;;;;;;;;;;;5054477;28;20622;-77
2023/07/10 04:21:30;;;;;;;;;;;;;;;;;;5073377;28;20342;-76
2023/07/10 04:23:55;;;;;;;;;;;;;;;;;;5072614;28;19963;-76
2023/07/10 04:26:21;;;;;;;;;;;;;;;;;;5036728;28;20023;-74
2023/07/10 04:28:46;;;;;;;;;;;;;;;;;;5072931;28;19928;-76
2023/07/10 04:31:13;;;;;;;;;;;;;;;;;;5073309;28;19916;-76
2023/07/10 04:33:39;;;;;;;;;;;;;;;;;;5053096;28;19920;-76
2023/07/10 04:36:04;;;;;;;;;;;;;;;;;;5054379;28;19912;-76
2023/07/10 04:41:46;;;;;;;;;;;;;;;;;;5072728;28;19934;-75
2023/07/10 04:44:11;;;;;;;;;;;;;;;;;;5035895;28;19920;-77
2023/07/10 04:46:36;;;;;;;;;;;;;;;;;;5038621;28;19919;-77
2023/07/10 04:49:02;;;;;;;;;;;;;;;;;;5035437;28;20402;-76
2023/07/10 04:51:27;;;;;;;;;;;;;;;;;;5064230;28;21968;-77
2023/07/10 04:53:52;;;;;;;;;;;;;;;;;;5073586;28;20831;-76
2023/07/10 04:56:18;;;;;;;;;;;;;;;;;;5072804;28;19915;-77
2023/07/10 04:58:43;;;;;;;;;;;;;;;;;;5047899;28;19920;-79
2023/07/10 05:01:09;;;;;;;;;;;;;;;;;;5057816;28;19932;-77
2023/07/10 05:03:34;;;;;;;;;;;;;;;;;;5069833;28;20002;-78
2023/07/10 05:05:59;;;;;;;;;;;;;;;;;;5064028;28;20008;-75
2023/07/10 05:08:24;;;;;;;;;;;;;;;;;;5055273;28;19926;-77
2023/07/10 05:10:54;;;;;;;;;;;;;;;;;;5052267;28;19920;-78
2023/07/10 05:13:19;;;;;;;;;;;;;;;;;;5056101;28;19920;-76
2023/07/10 05:15:44;;;;;;;;;;;;;;;;;;5051912;28;19916;-78
2023/07/10 05:18:10;;;;;;;;;;;;;;;;;;5037634;28;19924;-76
2023/07/10 05:20:38;;;;;;;;;;;;;;;;;;5056575;28;20032;-75
2023/07/10 05:23:03;;;;;;;;;;;;;;;;;;5054109;28;19917;-78
2023/07/10 05:25:29;;;;;;;;;;;;;;;;;;5034457;28;21920;-78
2023/07/10 05:27:54;;;;;;;;;;;;;;;;;;5049368;28;19912;-76
2023/07/10 05:30:19;;;;;;;;;;;;;;;;;;5023425;28;19920;-77
2023/07/10 05:32:44;;;;;;;;;;;;;;;;;;5026740;28;19921;-76
2023/07/10 05:35:10;;;;;;;;;;;;;;;;;;5069343;28;19950;-76
2023/07/10 05:37:35;;;;;;;;;;;;;;;;;;5024512;28;19928;-75
2023/07/10 05:40:00;;;;;;;;;;;;;;;;;;5069869;28;19916;-77
2023/07/10 05:42:26;;;;;;;;;;;;;;;;;;5056126;28;20011;-74
2023/07/10 05:44:51;;;;;;;;;;;;;;;;;;5038714;28;19920;-74
2023/07/10 05:47:19;;;;;;;;;;;;;;;;;;5041231;28;19956;-74
2023/07/10 05:49:44;;;;;;;;;;;;;;;;;;5021561;28;20015;-74
2023/07/10 05:52:09;;;;;;;;;;;;;;;;;;5057658;28;19921;-72
2023/07/10 05:54:34;;;;;;;;;;;;;;;;;;5047461;28;19916;-73
2023/07/10 05:57:00;;;;;;;;;;;;;;;;;;5039231;28;20005;-74
2023/07/10 05:59:25;;;;;;;;;;;;;;;;;;5045576;28;19916;-73
2023/07/10 06:01:50;;;;;;;;;;;;;;;;;;5049606;28;19930;-74
2023/07/10 06:04:15;;;;;;;;;;;;;;;;;;5051052;28;19924;-73
2023/07/10 06:10:00;;;;;;;;;;;;;;;;;;5070824;28;20350;-74
2023/07/10 06:12:25;;;;;;;;;;;;;;;;;;5064274;28;19920;-73
2023/07/10 06:14:51;;;;;;;;;;;;;;;;;;5064384;28;19927;-73
2023/07/10 06:17:16;;;;;;;;;;;;;;;;;;5052975;28;20630;-72
2023/07/10 06:19:42;;;;;;;;;;;;;;;;;;5068294;28;19920;-71
2023/07/10 06:22:10;;;;;;;;;;;;;;;;;;5046037;28;19921;-72
2023/07/10 06:24:38;;;;;;;;;;;;;;;;;;5050191;28;19977;-73
2023/07/10 06:27:06;;;;;;;;;;;;;;;;;;5047493;28;19924;-73
2023/07/10 06:29:31;;;;;;;;;;;;;;;;;;5048067;28;21075;-73
2023/07/10 06:31:57;;;;;;;;;;;;;;;;;;5037728;28;20366;-72
2023/07/10 06:34:22;;;;;;;;;;;;;;;;;;5069869;28;19931;-72
2023/07/10 06:36:47;;;;;;;;;;;;;;;;;;5031978;28;20485;-72
2023/07/10 06:39:13;;;;;;;;;;;;;;;;;;5034492;28;20046;-72
2023/07/10 06:41:38;;;;;;;;;;;;;;;;;;5052688;28;20448;-71
2023/07/10 06:44:03;;;;;;;;;;;;;;;;;;5053703;28;19916;-72
2023/07/10 06:46:29;;;;;;;;;;;;;;;;;;5054912;28;20871;-71
2023/07/10 06:48:54;;;;;;;;;;;;;;;;;;5029214;28;19930;-71
2023/07/10 06:51:22;;;;;;;;;;;;;;;;;;5041483;28;19927;-72
2023/07/10 06:53:47;;;;;;;;;;;;;;;;;;5050548;28;19920;-73
2023/07/10 06:56:13;;;;;;;;;;;;;;;;;;5049015;28;19927;-71
2023/07/10 06:58:38;;;;;;;;;;;;;;;;;;5062928;28;21620;-71
2023/07/10 07:01:06;;;;;;;;;;;;;;;;;;5069571;28;19931;-70
2023/07/10 07:03:31;;;;;;;;;;;;;;;;;;5066887;28;20766;-71
2023/07/10 07:06:01;;;;;;;;;;;;;;;;;;5038457;28;20035;-71
2023/07/10 07:08:28;;;;;;;;;;;;;;;;;;5048361;28;20418;-70
2023/07/10 07:10:54;;;;;;;;;;;;;;;;;;5048587;28;20891;-72
2023/07/10 07:13:20;;;;;;;;;;;;;;;;;;5038467;28;19920;-70
2023/07/10 07:15:45;;;;;;;;;;;;;;;;;;5049988;28;19927;-71
2023/07/10 07:18:11;;;;;;;;;;;;;;;;;;5049560;28;20379;-72
2023/07/10 07:20:39;;;;;;;;;;;;;;;;;;5068906;28;19930;-70
2023/07/10 07:23:06;;;;;;;;;;;;;;;;;;5063278;28;19920;-69
2023/07/10 07:25:34;;;;;;;;;;;;;;;;;;5050482;28;19954;-69
2023/07/10 07:27:59;;;;;;;;;;;;;;;;;;5044367;28;19943;-71
2023/07/10 07:30:24;;;;;;;;;;;;;;;;;;5047177;28;19920;-70
2023/07/10 07:32:49;;;;;;;;;;;;;;;;;;5055126;28;20550;-70
2023/07/10 07:35:15;;;;;;;;;;;;;;;;;;5035285;28;19916;-70
2023/07/10 07:37:40;;;;;;;;;;;;;;;;;;5070372;28;19931;-69
2023/07/10 07:40:06;;;;;;;;;;;;;;;;;;5050785;28;19916;-70
2023/07/10 07:42:31;;;;;;;;;;;;;;;;;;5027050;28;19966;-69
2023/07/10 07:45:00;;;;;;;;;;;;;;;;;;5035310;28;19924;-69
2023/07/10 07:47:28;;;;;;;;;;;;;;;;;;5061540;28;19951;-69
2023/07/10 07:49:56;;;;;;;;;;;;;;;;;;5063012;28;21910;-70
2023/07/10 07:52:23;;;;;;;;;;;;;;;;;;5085679;28;19920;-69
2023/07/10 07:54:48;;;;;;;;;;;;;;;;;;5071749;28;20385;-70
2023/07/10 07:57:22;;;;;;;;;;;;;;;;;;5089968;28;19920;-69
2023/07/10 07:59:50;;;;;;;;;;;;;;;;;;5070726;28;19928;-69
2023/07/10 08:02:18;;;;;;;;;;;;;;;;;;5070850;28;19920;-69
2023/07/10 08:04:43;;;;;;;;;;;;;;;;;;5069740;28;20552;-68
2023/07/10 08:07:08;;;;;;;;;;;;;;;;;;5070091;28;20022;-70
2023/07/10 08:09:34;;;;;;;;;;;;;;;;;;5053463;28;19916;-69
2023/07/10 08:12:02;;;;;;;;;;;;;;;;;;5069387;28;19922;-70
2023/07/10 08:14:27;;;;;;;;;;;;;;;;;;5054193;28;20734;-69
2023/07/10 08:16:52;;;;;;;;;;;;;;;;;;5081735;28;19923;-67
2023/07/10 08:19:20;;;;;;;;;;;;;;;;;;5070261;28;20405;-69
2023/07/10 08:21:51;;;;;;;;;;;;;;;;;;5053068;28;19976;-73
2023/07/10 08:24:16;;;;;;;;;;;;;;;;;;5053261;28;19916;-68
2023/07/10 08:26:41;;;;;;;;;;;;;;;;;;5070097;28;19926;-69
2023/07/10 08:29:07;;;;;;;;;;;;;;;;;;5088491;28;20648;-70
2023/07/10 08:31:32;;;;;;;;;;;;;;;;;;5053954;28;19927;-69
2023/07/10 08:37:14;;;;;;;;;;;;;;;;;;5088189;28;20290;-73
2023/07/10 08:39:39;;;;;;;;;;;;;;;;;;5069848;28;19919;-70
2023/07/10 08:42:07;;;;;;;;;;;;;;;;;;5055005;28;19936;-69
2023/07/10 08:44:35;;;;;;;;;;;;;;;;;;5055234;28;19915;-67
2023/07/10 08:47:01;;;;;;;;;;;;;;;;;;5073570;28;20218;-72
2023/07/10 08:49:26;;;;;;;;;;;;;;;;;;5055636;28;19980;-68
2023/07/10 08:51:54;;;;;;;;;;;;;;;;;;5069793;28;19951;-68
2023/07/10 08:54:20;;;;;;;;;;;;;;;;;;5093082;28;20006;-68
2023/07/10 08:56:47;;;;;;;;;;;;;;;;;;5071809;28;20000;-73
2023/07/10 08:59:13;;;;;;;;;;;;;;;;;;5093908;28;21399;-69
2023/07/10 09:01:39;;;;;;;;;;;;;;;;;;5072293;28;20038;-71
2023/07/10 09:04:05;;;;;;;;;;;;;;;;;;5053220;28;19920;-68
2023/07/10 09:06:33;;;;;;;;;;;;;;;;;;5068974;28;19946;-71
2023/07/10 09:08:58;;;;;;;;;;;;;;;;;;5079300;28;20367;-71
2023/07/10 09:11:23;;;;;;;;;;;;;;;;;;5082337;28;20018;-73
2023/07/10 09:13:49;;;;;;;;;;;;;;;;;;5056088;28;19923;-72
2023/07/10 09:16:14;;;;;;;;;;;;;;;;;;5072364;28;19926;-69
2023/07/10 09:18:51;;;;;;;;;;;;;;;;;;5067895;28;19915;-70
2023/07/10 09:21:16;;;;;;;;;;;;;;;;;;5055032;28;19920;-71
2023/07/10 09:23:43;;;;;;;;;;;;;;;;;;5084308;28;19955;-67
2023/07/10 09:29:25;;;;;;;;;;;;;;;;;;5092191;28;19926;-68
2023/07/10 09:31:53;;;;;;;;;;;;;;;;;;5071750;28;19920;-70
2023/07/10 09:34:18;;;;;;;;;;;;;;;;;;5072588;28;19919;-69
2023/07/10 09:36:46;;;;;;;;;;;;;;;;;;5071416;28;19966;-71
2023/07/10 09:39:17;;;;;;;;;;;;;;;;;;5053311;28;19963;-68
2023/07/10 09:41:43;;;;;;;;;;;;;;;;;;5071998;28;19923;-73
2023/07/10 09:44:08;;;;;;;;;;;;;;;;;;5091114;28;19982;-73
2023/07/10 09:46:36;;;;;;;;;;;;;;;;;;5073035;28;19932;-69
2023/07/10 09:49:01;;;;;;;;;;;;;;;;;;5071668;28;19927;-72
2023/07/10 09:51:29;;;;;;;;;;;;;;;;;;5089342;28;19919;-69
2023/07/10 09:53:59;;;;;;;;;;;;;;;;;;5072508;28;19918;-71
2023/07/10 09:56:25;;;;;;;;;;;;;;;;;;5070392;28;19927;-69
2023/07/10 09:58:50;;;;;;;;;;;;;;;;;;5091973;27;19916;-69
2023/07/10 10:01:15;;;;;;;;;;;;;;;;;;5091780;28;20070;-67
2023/07/10 10:03:43;;;;;;;;;;;;;;;;;;5053582;28;19926;-71
2023/07/10 10:06:09;;;;;;;;;;;;;;;;;;5073665;28;19923;-71
2023/07/10 10:08:34;;;;;;;;;;;;;;;;;;5071297;28;19920;-76
2023/07/10 10:11:00;;;;;;;;;;;;;;;;;;5091327;28;19923;-68
2023/07/10 10:13:26;;;;;;;;;;;;;;;;;;5069219;28;20023;-70
2023/07/10 10:15:52;;;;;;;;;;;;;;;;;;5054301;28;19937;-69
2023/07/10 10:18:17;;;;;;;;;;;;;;;;;;5092572;28;20378;-70
2023/07/10 10:20:42;;;;;;;;;;;;;;;;;;5070762;28;19966;-74
2023/07/10 10:23:08;;;;;;;;;;;;;;;;;;5091819;28;19955;-69
2023/07/10 10:28:50;;;;;;;;;;;;;;;;;;5072868;28;20427;-69
2023/07/10 10:31:18;;;;;;;;;;;;;;;;;;5072283;28;19960;-70
2023/07/10 10:33:46;;;;;;;;;;;;;;;;;;5071019;28;20642;-69
2023/07/10 10:36:11;;;;;;;;;;;;;;;;;;5068929;28;20002;-71
2023/07/10 10:38:36;;;;;;;;;;;;;;;;;;5053762;28;19973;-69
2023/07/10 10:44:19;;;;;;;;;;;;;;;;;;5078323;28;20405;-70
2023/07/10 10:50:01;;;;;;;;;;;;;;;;;;5090376;28;19926;-65
2023/07/10 10:52:26;;;;;;;;;;;;;;;;;;5090906;28;19924;-67
2023/07/10 10:54:52;;;;;;;;;;;;;;;;;;5054521;28;19916;-68
2023/07/10 10:57:17;;;;;;;;;;;;;;;;;;5071046;28;20706;-75
2023/07/10 10:59:42;;;;;;;;;;;;;;;;;;5088893;28;19919;-71
2023/07/10 11:02:08;;;;;;;;;;;;;;;;;;5068511;28;19935;-72
2023/07/10 11:04:36;;;;;;;;;;;;;;;;;;5053240;28;20018;-69
2023/07/10 11:07:04;;;;;;;;;;;;;;;;;;5067601;28;20385;-72
2023/07/10 11:09:30;;;;;;;;;;;;;;;;;;5070017;28;19927;-69
2023/07/10 11:11:55;;;;;;;;;;;;;;;;;;5070167;28;19924;-72
2023/07/10 11:14:20;;;;;;;;;;;;;;;;;;5070466;28;19915;-67
2023/07/10 11:16:46;;;;;;;;;;;;;;;;;;5070275;28;20408;-70
2023/07/10 11:19:11;;;;;;;;;;;;;;;;;;5053581;28;19926;-71
2023/07/10 11:21:37;;;;;;;;;;;;;;;;;;5070710;28;19959;-69
2023/07/10 11:24:03;;;;;;;;;;;;;;;;;;5089158;28;19923;-69
2023/07/10 11:26:29;;;;;;;;;;;;;;;;;;5071045;28;20594;-71
2023/07/10 11:28:55;;;;;;;;;;;;;;;;;;5088964;28;19928;-67
2023/07/10 11:31:20;;;;;;;;;;;;;;;;;;5051471;28;19923;-72
2023/07/10 11:37:02;;;;;;;;;;;;;;;;;;5088036;28;19968;-73
2023/07/10 11:39:27;;;;;;;;;;;;;;;;;;5053701;28;20344;-69
2023/07/10 11:41:53;;;;;;;;;;;;;;;;;;5081739;28;20345;-69
2023/07/10 11:44:19;;;;;;;;;;;;;;;;;;5082269;28;19938;-76
2023/07/10 11:46:44;;;;;;;;;;;;;;;;;;5067347;28;20034;-74
2023/07/10 11:49:10;;;;;;;;;;;;;;;;;;5063320;28;19982;-73
2023/07/10 11:51:36;;;;;;;;;;;;;;;;;;5087682;28;20080;-69
2023/07/10 11:54:02;;;;;;;;;;;;;;;;;;5065581;28;19926;-71
2023/07/10 11:56:29;;;;;;;;;;;;;;;;;;5070669;28;19949;-70
2023/07/10 11:58:55;;;;;;;;;;;;;;;;;;5050021;28;19923;-72
2023/07/10 12:01:22;;;;;;;;;;;;;;;;;;5086984;28;20843;-70
2023/07/10 12:03:47;;;;;;;;;;;;;;;;;;5088065;28;19967;-72
2023/07/10 12:06:12;;;;;;;;;;;;;;;;;;5070563;28;20099;-72
2023/07/10 12:08:38;;;;;;;;;;;;;;;;;;5070260;28;19927;-69
2023/07/10 12:11:03;;;;;;;;;;;;;;;;;;5069782;28;19976;-70
2023/07/10 12:13:29;;;;;;;;;;;;;;;;;;5089595;28;20484;-71
2023/07/10 12:15:54;;;;;;;;;;;;;;;;;;5091127;28;20023;-72
2023/07/10 12:18:19;;;;;;;;;;;;;;;;;;5057634;28;19967;-68
2023/07/10 12:20:45;;;;;;;;;;;;;;;;;;5071874;28;19920;-77
2023/07/10 12:23:10;;;;;;;;;;;;;;;;;;5071234;28;19957;-75
2023/07/10 12:25:35;;;;;;;;;;;;;;;;;;5070719;28;21826;-70
2023/07/10 12:28:01;;;;;;;;;;;;;;;;;;5092361;28;19940;-72
2023/07/10 12:30:26;;;;;;;;;;;;;;;;;;5073739;28;19916;-71
2023/07/10 12:32:52;;;;;;;;;;;;;;;;;;5073430;28;20457;-75
2023/07/10 12:35:17;;;;;;;;;;;;;;;;;;5074060;28;20000;-72
2023/07/10 12:37:42;;;;;;;;;;;;;;;;;;5073542;28;19927;-70
2023/07/10 12:40:08;;;;;;;;;;;;;;;;;;5058281;28;19996;-71
2023/07/10 12:42:33;;;;;;;;;;;;;;;;;;5073526;28;19924;-77
2023/07/10 12:44:58;;;;;;;;;;;;;;;;;;5073799;28;19927;-74
2023/07/10 12:47:24;;;;;;;;;;;;;;;;;;5073767;28;20392;-79
2023/07/10 12:49:52;;;;;;;;;;;;;;;;;;5091946;28;19973;-72
2023/07/10 12:52:17;;;;;;;;;;;;;;;;;;5074443;28;19987;-75
2023/07/10 12:54:42;;;;;;;;;;;;;;;;;;5054616;28;19931;-69
2023/07/10 12:57:11;;;;;;;;;;;;;;;;;;5093603;28;19920;-72
2023/07/10 12:59:38;;;;;;;;;;;;;;;;;;5085248;27;19916;-71
2023/07/10 13:02:04;;;;;;;;;;;;;;;;;;5054383;28;19916;-73
2023/07/10 13:04:31;;;;;;;;;;;;;;;;;;5073481;28;20363;-72
2023/07/10 13:06:59;;;;;;;;;;;;;;;;;;5077168;28;19920;-66
2023/07/10 13:09:24;;;;;;;;;;;;;;;;;;5084740;28;19919;-76
2023/07/10 13:11:50;;;;;;;;;;;;;;;;;;5092584;28;19934;-73
2023/07/10 13:14:15;;;;;;;;;;;;;;;;;;5075208;28;19916;-73
2023/07/10 13:16:41;;;;;;;;;;;;;;;;;;5071947;28;20769;-74
2023/07/10 13:22:25;;;;;;;;;;;;;;;;;;5088351;28;19974;-73
2023/07/10 13:24:53;;;;;;;;;;;;;;;;;;5092262;28;19932;-70
2023/07/10 13:27:21;;;;;;;;;;;;;;;;;;5072551;28;19920;-68
2023/07/10 13:29:49;;;;;;;;;;;;;;;;;;5072854;28;19931;-73
2023/07/10 13:32:14;;;;;;;;;;;;;;;;;;5061617;28;19924;-68
2023/07/10 13:34:40;;;;;;;;;;;;;;;;;;5071929;28;19920;-70
2023/07/10 13:37:05;;;;;;;;;;;;;;;;;;5055659;28;20014;-71
2023/07/10 13:39:33;;;;;;;;;;;;;;;;;;5090537;28;19927;-67
2023/07/10 13:41:58;;;;;;;;;;;;;;;;;;5071731;28;19915;-70
2023/07/10 13:44:24;;;;;;;;;;;;;;;;;;5090585;28;22026;-72
2023/07/10 13:46:49;;;;;;;;;;;;;;;;;;5069198;28;20794;-71
2023/07/10 13:49:15;;;;;;;;;;;;;;;;;;5091289;28;19924;-71
2023/07/10 13:54:56;;;;;;;;;;;;;;;;;;5091469;28;20032;-71
2023/07/10 13:57:25;;;;;;;;;;;;;;;;;;5072654;28;19927;-69
2023/07/10 13:59:53;;;;;;;;;;;;;;;;;;5069901;28;19920;-69
2023/07/10 14:02:18;;;;;;;;;;;;;;;;;;5055126;28;19920;-70
2023/07/10 14:04:44;;;;;;;;;;;;;;;;;;5070077;28;19915;-71
2023/07/10 14:07:09;;;;;;;;;;;;;;;;;;5071167;28;19919;-72
2023/07/10 14:09:34;;;;;;;;;;;;;;;;;;5089577;28;19920;-73
2023/07/10 14:12:00;;;;;;;;;;;;;;;;;;5070910;28;19928;-71
2023/07/10 14:14:25;;;;;;;;;;;;;;;;;;5071257;28;19927;-70
2023/07/10 14:16:51;;;;;;;;;;;;;;;;;;5070030;28;21322;-67
2023/07/10 14:19:19;;;;;;;;;;;;;;;;;;5072948;28;19965;-72
2023/07/10 14:21:44;;;;;;;;;;;;;;;;;;5073289;28;20273;-70
2023/07/10 14:24:12;;;;;;;;;;;;;;;;;;5075691;28;20839;-71
2023/07/10 14:26:37;;;;;;;;;;;;;;;;;;5085517;28;19926;-72
2023/07/10 14:29:05;;;;;;;;;;;;;;;;;;5090337;28;20005;-69
2023/07/10 14:31:30;;;;;;;;;;;;;;;;;;5089167;28;20389;-73
2023/07/10 14:33:56;;;;;;;;;;;;;;;;;;5072986;28;20816;-72
2023/07/10 14:36:21;;;;;;;;;;;;;;;;;;5074068;28;19920;-71
2023/07/10 14:38:46;;;;;;;;;;;;;;;;;;5073094;28;19985;-71
2023/07/10 14:41:12;;;;;;;;;;;;;;;;;;5073658;28;19962;-70
2023/07/10 14:43:37;;;;;;;;;;;;;;;;;;5070953;28;19916;-71
2023/07/10 14:46:03;;;;;;;;;;;;;;;;;;5054119;28;19924;-73
2023/07/10 14:48:28;;;;;;;;;;;;;;;;;;5072073;28;20381;-69
2023/07/10 14:50:56;;;;;;;;;;;;;;;;;;5050256;28;20022;-71
2023/07/10 14:53:21;;;;;;;;;;;;;;;;;;5063318;28;19920;-65
2023/07/10 14:55:49;;;;;;;;;;;;;;;;;;5060935;28;20355;-67
2023/07/10 14:58:17;;;;;;;;;;;;;;;;;;5063188;28;19927;-69
2023/07/10 15:00:43;;;;;;;;;;;;;;;;;;5080260;28;20582;-70
2023/07/10 15:03:08;;;;;;;;;;;;;;;;;;5054984;28;19918;-70
2023/07/10 15:05:37;;;;;;;;;;;;;;;;;;5089797;28;19919;-68
2023/07/10 15:08:03;;;;;;;;;;;;;;;;;;5092661;27;19916;-69
2023/07/10 15:10:28;;;;;;;;;;;;;;;;;;5064552;28;19920;-71
2023/07/10 15:12:54;;;;;;;;;;;;;;;;;;5088351;28;20447;-71
2023/07/10 15:15:20;;;;;;;;;;;;;;;;;;5073505;28;19919;-69
2023/07/10 15:17:45;;;;;;;;;;;;;;;;;;5072355;28;19920;-72
2023/07/10 15:20:11;;;;;;;;;;;;;;;;;;5089385;28;19924;-68
2023/07/10 15:22:36;;;;;;;;;;;;;;;;;;5092646;28;19923;-67
2023/07/10 15:25:01;;;;;;;;;;;;;;;;;;5090608;28;19920;-70
2023/07/10 15:27:27;;;;;;;;;;;;;;;;;;5071790;28;19916;-71
2023/07/10 15:29:55;;;;;;;;;;;;;;;;;;5070719;28;21732;-69
2023/07/10 15:32:23;;;;;;;;;;;;;;;;;;5071138;28;19931;-67
2023/07/10 15:34:49;;;;;;;;;;;;;;;;;;5075893;28;19916;-70
2023/07/10 15:37:14;;;;;;;;;;;;;;;;;;5090622;28;19920;-69
2023/07/10 15:39:42;;;;;;;;;;;;;;;;;;5081607;28;19919;-67
2023/07/10 15:42:10;;;;;;;;;;;;;;;;;;5089755;28;19920;-66
2023/07/10 15:44:38;;;;;;;;;;;;;;;;;;5055119;28;20028;-67
2023/07/10 15:47:06;;;;;;;;;;;;;;;;;;5065071;28;19916;-67
2023/07/10 15:49:32;;;;;;;;;;;;;;;;;;5057815;28;19936;-66
2023/07/10 15:52:02;;;;;;;;;;;;;;;;;;5074142;28;20666;-68
2023/07/10 15:54:27;;;;;;;;;;;;;;;;;;5075274;28;19915;-67
2023/07/10 15:56:55;;;;;;;;;;;;;;;;;;5087719;28;19959;-67
2023/07/10 15:59:23;;;;;;;;;;;;;;;;;;5074715;28;19959;-70
2023/07/10 16:01:49;;;;;;;;;;;;;;;;;;5072011;28;20010;-68
2023/07/10 16:04:17;;;;;;;;;;;;;;;;;;5089094;28;19962;-67
2023/07/10 16:06:47;;;;;;;;;;;;;;;;;;5055822;28;19926;-67
2023/07/10 16:09:14;;;;;;;;;;;;;;;;;;5071479;28;19916;-70
2023/07/10 16:11:39;;;;;;;;;;;;;;;;;;5092661;28;19924;-68
2023/07/10 16:14:04;;;;;;;;;;;;;;;;;;5054618;28;19938;-69
2023/07/10 16:16:32;;;;;;;;;;;;;;;;;;5070247;28;20606;-67
2023/07/10 16:18:58;;;;;;;;;;;;;;;;;;5092250;28;19919;-67
2023/07/10 16:21:23;;;;;;;;;;;;;;;;;;5072909;28;19922;-66
2023/07/10 16:23:51;;;;;;;;;;;;;;;;;;5073909;28;19958;-67
2023/07/10 16:26:19;;;;;;;;;;;;;;;;;;5073155;28;19931;-69
2023/07/10 16:28:45;;;;;;;;;;;;;;;;;;5092172;28;19920;-67
2023/07/10 16:31:10;;;;;;;;;;;;;;;;;;5070687;28;20004;-68
2023/07/10 16:33:35;;;;;;;;;;;;;;;;;;5055785;28;19927;-67
2023/07/10 16:36:04;;;;;;;;;;;;;;;;;;5057486;28;19930;-67
2023/07/10 16:38:31;;;;;;;;;;;;;;;;;;5056146;28;19931;-65
2023/07/10 16:40:56;;;;;;;;;;;;;;;;;;5073799;28;19929;-65
2023/07/10 16:43:22;;;;;;;;;;;;;;;;;;5092565;28;19920;-67
2023/07/10 16:45:47;;;;;;;;;;;;;;;;;;5074840;28;19927;-66
2023/07/10 16:48:16;;;;;;;;;;;;;;;;;;5072547;28;20031;-66
2023/07/10 16:50:42;;;;;;;;;;;;;;;;;;5073156;28;19928;-67
2023/07/10 16:53:08;;;;;;;;;;;;;;;;;;5071108;28;19920;-67
2023/07/10 16:55:33;;;;;;;;;;;;;;;;;;5074165;28;19965;-66
2023/07/10 16:57:58;;;;;;;;;;;;;;;;;;5093107;28;19920;-67
2023/07/10 17:00:28;;;;;;;;;;;;;;;;;;5073637;28;20372;-66
2023/07/10 17:02:53;;;;;;;;;;;;;;;;;;5071805;28;19924;-66
2023/07/10 17:05:18;;;;;;;;;;;;;;;;;;5071258;28;19958;-68
2023/07/10 17:07:44;;;;;;;;;;;;;;;;;;5075506;28;19919;-67
2023/07/10 17:10:09;;;;;;;;;;;;;;;;;;5092539;28;19916;-67
2023/07/10 17:12:36;;;;;;;;;;;;;;;;;;5091725;28;19973;-66
2023/07/10 17:15:03;;;;;;;;;;;;;;;;;;5072346;28;20291;-68
2023/07/10 17:17:34;;;;;;;;;;;;;;;;;;5093156;28;19926;-67
2023/07/10 17:19:59;;;;;;;;;;;;;;;;;;5071739;28;19922;-67
2023/07/10 17:22:24;;;;;;;;;;;;;;;;;;5058344;28;19916;-65
2023/07/10 17:24:51;;;;;;;;;;;;;;;;;;5072625;28;19919;-68
2023/07/10 17:30:01;;;;;;;;;;;;;;;;;;5092760;28;19916;-65